Mount Pearl, Canada
Current Conditions -  °F | °C
As of 3:00 PM on Monday 24 Nov 2014 (Local Time) from CYYT Reporting Station
Scattered Clouds Scattered Clouds  
Wind Chill: 23°   Ceiling: Unl
Heat Index: 32°   Visibility: 15mi
Dew Point: 14°   Wind: 12mph
Humidity: 47%   Direction: 290°WNW
Pressure: 30.35"   Gusts: NA
Location:  47.52°N, 52.82°W
Report Text: CYYT 241800Z 29010KT 15SM SCT200 M00/M10 A3035 RMK CI4 SLP286
Loading
Personal Weather Stations






























Interactive Weather Map New forecast layout! Learn more

10-Day Weather Forecast

Advertisements
Track Severe Weather on mobile